Hlavní strana
METAR-TAF:

METAR-TAF

Letiště :

Fort Knox, Kentucky, Spojené státy americké

zeměpisná šířka: 37-54N, zeměpisná délka: 085-58W, výška: 230 m

Aktuální stav počasí

Zpráva byla vytvořena před 18 minutami, v 14:56 UTC
Jihojihozápadní vítr 7 kt
Teplota 7°C
Vlhkost vzduchu 53%
Tlak 1020 hPa
Viditelnost: 16.1 km
Jasno

METAR: KFTK 031456Z AUTO 21007KT 10SM CLR 07/M02 A3011 RMK AO2 SLP204 T00731017 50005

Čas: 10:14 (15:14 UTC)

Předpověď počasí

Zpráva byla vytvořena před 3 hodinami a 14 minutami, v 12:00 UTC
Předpověď platná od 03 v 12 UTC do 04 v 18 UTC
Jihozápadní vítr 6 kt
Viditelnost 10 km a více
Jasno
Změna
od 03 v 20 UTC do 03 v 21 UTC
Západojihozápadní vítr 10 kt s nárazy do 15 kt
Viditelnost 10 km a více
Jasno
Změna
od 03 v 23 UTC do 03 v 24 UTC
vítr z různých směrů 6 kt
Viditelnost 10 km a více
Skoro jasno ve výšce 2600 ft

TAF: KFTK 031200Z 0312/0418 23006KT 9999 SKC QNH3007INS BECMG 0320/0321 25010G15KT 9999 SKC QNH3001INS BECMG 0323/0324 VRB06KT 9999 FEW026 QNH3003INS TX15/0320Z TNM02/0312Z

Stav a předpovědi počasí z více než 4 000 letišť (zprávy METAR a TAF).

Červené a žluté tečky na mapě představují dostupné meteorologické stanice.

Když kurzor umístíte na tečku, zobrazí se název stanice.

Pak kliknutím zobrazíte stav a předpověď počasí.

Chcete-li změnit mapu, kliknutím na zelené tlačítko se znaménkem +mapu přiblížíte, kliknutím na zelené tlačítko se znaménkem – mapu oddálíte a kliknutím na zelené šipky přejdete na sousední mapy.


METAR-TAF: